Time,TemperatureF,DewpointF,PressureIn,WindDirection,WindDirectionDegrees,WindSpeedMPH,WindSpeedGustMPH,Humidity,HourlyPrecipIn,Conditions,Clouds,dailyrainin,SoftwareType,DateUTC
2013-11-08 00:00:00,40.0,31.0,29.90,NW,304,7.0,12.0,70,0.00,,,-99.99,,2013-11-08 05:00:00,
2013-11-08 00:44:00,40.0,31.0,29.90,NW,304,7.0,12.0,70,0.00,,,-99.99,,2013-11-08 05:44:00,
2013-11-08 00:54:00,40.0,31.0,29.90,NW,304,7.0,12.0,70,0.00,,,-99.99,,2013-11-08 05:54:00,
2013-11-08 01:00:00,40.0,32.0,29.91,WNW,286,6.0,19.0,72,0.00,,,-99.99,,2013-11-08 06:00:00,
2013-11-08 01:42:00,40.0,32.0,29.91,WNW,286,6.0,19.0,72,0.00,,,-99.99,,2013-11-08 06:42:00,
2013-11-08 01:53:00,40.0,32.0,29.91,WNW,286,6.0,19.0,72,0.00,,,-99.99,,2013-11-08 06:53:00,
2013-11-08 02:00:00,39.0,30.0,29.92,WNW,291,8.0,18.0,69,0.00,,,-99.99,,2013-11-08 07:00:00,
2013-11-08 02:42:00,39.0,30.0,29.92,WNW,291,8.0,18.0,69,0.00,,,-99.99,,2013-11-08 07:42:00,
2013-11-08 02:52:00,39.0,30.0,29.92,WNW,291,8.0,18.0,69,0.00,,,-99.99,,2013-11-08 07:52:00,
2013-11-08 03:00:00,37.0,27.0,29.93,WNW,299,7.0,18.0,65,0.00,,,-99.99,,2013-11-08 08:00:00,
2013-11-08 03:42:00,37.0,27.0,29.93,WNW,299,7.0,18.0,65,0.00,,,-99.99,,2013-11-08 08:42:00,
2013-11-08 03:52:00,37.0,27.0,29.93,WNW,299,7.0,18.0,65,0.00,,,-99.99,,2013-11-08 08:52:00,
2013-11-08 04:00:00,36.0,26.0,29.94,West,274,4.0,12.0,66,0.00,,,-99.99,,2013-11-08 09:00:00,
2013-11-08 04:43:00,36.0,26.0,29.94,West,274,4.0,12.0,66,0.00,,,-99.99,,2013-11-08 09:43:00,
2013-11-08 04:54:00,36.0,26.0,29.94,West,274,4.0,12.0,66,0.00,,,-99.99,,2013-11-08 09:54:00,
2013-11-08 05:00:00,35.0,25.0,29.95,WNW,298,9.0,15.0,66,0.00,,,-99.99,,2013-11-08 10:00:00,
2013-11-08 05:43:00,35.0,25.0,29.95,WNW,298,9.0,15.0,66,0.00,,,-99.99,,2013-11-08 10:43:00,
2013-11-08 05:53:00,35.0,25.0,29.95,WNW,298,9.0,15.0,66,0.00,,,-99.99,,2013-11-08 10:53:00,
2013-11-08 06:00:00,34.0,23.0,29.96,West,279,6.0,16.0,66,0.00,,,-99.99,,2013-11-08 11:00:00,
2013-11-08 06:42:00,34.0,23.0,29.96,West,279,6.0,16.0,66,0.00,,,-99.99,,2013-11-08 11:42:00,
2013-11-08 06:52:00,34.0,23.0,29.96,West,279,6.0,16.0,66,0.00,,,-99.99,,2013-11-08 11:52:00,
2013-11-08 07:00:00,34.0,23.0,29.98,WNW,296,6.0,11.0,65,0.00,,,-99.99,,2013-11-08 12:00:00,
2013-11-08 07:42:00,34.0,23.0,29.98,WNW,296,6.0,11.0,65,0.00,,,-99.99,,2013-11-08 12:42:00,
2013-11-08 07:52:00,34.0,23.0,29.98,WNW,296,6.0,11.0,65,0.00,,,-99.99,,2013-11-08 12:52:00,
2013-11-08 08:00:00,36.0,25.0,30.00,WNW,290,9.0,12.0,65,0.00,,,-99.99,,2013-11-08 13:00:00,
2013-11-08 08:42:00,36.0,25.0,30.00,WNW,290,9.0,12.0,65,0.00,,,-99.99,,2013-11-08 13:42:00,
2013-11-08 08:52:00,36.0,25.0,30.00,WNW,290,9.0,12.0,65,0.00,,,-99.99,,2013-11-08 13:52:00,
2013-11-08 09:00:00,39.0,28.0,30.01,WNW,303,13.0,19.0,65,0.00,,,-99.99,,2013-11-08 14:00:00,
2013-11-08 09:42:00,39.0,28.0,30.01,WNW,303,13.0,19.0,65,0.00,,,-99.99,,2013-11-08 14:42:00,
2013-11-08 09:52:00,39.0,28.0,30.01,WNW,303,13.0,19.0,65,0.00,,,-99.99,,2013-11-08 14:52:00,
2013-11-08 10:00:00,42.0,27.0,30.00,West,278,15.0,22.0,56,0.00,,,-99.99,,2013-11-08 15:00:00,
2013-11-08 10:44:00,42.0,27.0,30.00,West,278,15.0,22.0,56,0.00,,,-99.99,,2013-11-08 15:44:00,
2013-11-08 10:53:00,42.0,27.0,30.00,West,278,15.0,22.0,56,0.00,,,-99.99,,2013-11-08 15:53:00,
2013-11-08 11:00:00,42.0,28.0,30.01,NW,312,13.0,23.0,58,0.00,,,-99.99,,2013-11-08 16:00:00,
2013-11-08 11:42:00,42.0,28.0,30.01,NW,312,13.0,23.0,58,0.00,,,-99.99,,2013-11-08 16:42:00,
2013-11-08 11:53:00,42.0,28.0,30.01,NW,312,13.0,23.0,58,0.00,,,-99.99,,2013-11-08 16:53:00,
2013-11-08 12:00:00,44.0,26.0,29.99,WNW,302,10.0,26.0,48,0.00,,,-99.99,,2013-11-08 17:00:00,
2013-11-08 12:43:00,44.0,26.0,29.99,WNW,302,10.0,26.0,48,0.00,,,-99.99,,2013-11-08 17:43:00,
2013-11-08 12:53:00,44.0,26.0,29.99,WNW,302,10.0,26.0,48,0.00,,,-99.99,,2013-11-08 17:53:00,
2013-11-08 13:00:00,43.0,24.0,30.00,NW,307,12.0,29.0,47,0.00,,,-99.99,,2013-11-08 18:00:00,
2013-11-08 13:43:00,43.0,24.0,30.00,NW,307,12.0,29.0,47,0.00,,,-99.99,,2013-11-08 18:43:00,
2013-11-08 13:53:00,43.0,24.0,30.00,NW,307,12.0,29.0,47,0.00,,,-99.99,,2013-11-08 18:53:00,
2013-11-08 14:00:00,46.0,23.0,30.00,NW,304,19.0,34.0,40,0.00,,,-99.99,,2013-11-08 19:00:00,
2013-11-08 14:42:00,46.0,23.0,30.00,NW,304,19.0,34.0,40,0.00,,,-99.99,,2013-11-08 19:42:00,
2013-11-08 14:53:00,46.0,23.0,30.00,NW,304,19.0,34.0,40,0.00,,,-99.99,,2013-11-08 19:53:00,
2013-11-08 15:00:00,43.0,24.0,30.03,NW,308,9.0,30.0,47,0.00,,,-99.99,,2013-11-08 20:00:00,
2013-11-08 15:42:00,43.0,24.0,30.03,NW,308,9.0,30.0,47,0.00,,,-99.99,,2013-11-08 20:42:00,
2013-11-08 15:53:00,43.0,24.0,30.03,NW,308,9.0,30.0,47,0.00,,,-99.99,,2013-11-08 20:53:00,
2013-11-08 16:00:00,44.0,25.0,30.04,WNW,297,16.0,25.0,46,0.00,,,-99.99,,2013-11-08 21:00:00,
2013-11-08 16:44:00,44.0,25.0,30.04,WNW,297,16.0,25.0,46,0.00,,,-99.99,,2013-11-08 21:44:00,
2013-11-08 16:54:00,44.0,25.0,30.04,WNW,297,16.0,25.0,46,0.00,,,-99.99,,2013-11-08 21:54:00,
2013-11-08 17:00:00,41.0,24.0,30.07,NW,313,10.0,29.0,51,0.00,,,-99.99,,2013-11-08 22:00:00,
2013-11-08 17:43:00,41.0,24.0,30.07,NW,313,10.0,29.0,51,0.00,,,-99.99,,2013-11-08 22:43:00,
2013-11-08 17:53:00,41.0,24.0,30.07,NW,313,10.0,29.0,51,0.00,,,-99.99,,2013-11-08 22:53:00,
2013-11-08 18:00:00,40.0,24.0,30.09,WNW,303,5.0,19.0,52,0.00,,,-99.99,,2013-11-08 23:00:00,
2013-11-08 18:43:00,40.0,24.0,30.09,WNW,303,5.0,19.0,52,0.00,,,-99.99,,2013-11-08 23:43:00,
2013-11-08 18:53:00,40.0,24.0,30.09,WNW,303,5.0,19.0,52,0.00,,,-99.99,,2013-11-08 23:53:00,
2013-11-08 19:00:00,39.0,24.0,30.11,WNW,301,5.0,16.0,54,0.00,,,-99.99,,2013-11-09 00:00:00,
2013-11-08 19:42:00,39.0,24.0,30.11,WNW,301,5.0,16.0,54,0.00,,,-99.99,,2013-11-09 00:42:00,
2013-11-08 19:52:00,39.0,24.0,30.11,WNW,301,5.0,16.0,54,0.00,,,-99.99,,2013-11-09 00:52:00,
2013-11-08 20:00:00,38.0,25.0,30.12,WNW,300,5.0,10.0,60,0.00,,,-99.99,,2013-11-09 01:00:00,
2013-11-08 20:42:00,38.0,25.0,30.12,WNW,300,5.0,10.0,60,0.00,,,-99.99,,2013-11-09 01:42:00,
2013-11-08 20:52:00,38.0,25.0,30.12,WNW,300,5.0,10.0,60,0.00,,,-99.99,,2013-11-09 01:52:00,
2013-11-08 21:00:00,35.0,24.0,30.14,WNW,287,3.0,7.0,65,0.00,,,-99.99,,2013-11-09 02:00:00,
2013-11-08 21:42:00,35.0,24.0,30.14,WNW,287,3.0,7.0,65,0.00,,,-99.99,,2013-11-09 02:42:00,
2013-11-08 21:52:00,35.0,24.0,30.14,WNW,287,3.0,7.0,65,0.00,,,-99.99,,2013-11-09 02:52:00,
2013-11-08 22:00:00,37.0,24.0,30.15,West,281,9.0,12.0,61,0.00,,,-99.99,,2013-11-09 03:00:00,
2013-11-08 22:44:00,37.0,24.0,30.15,West,281,9.0,12.0,61,0.00,,,-99.99,,2013-11-09 03:44:00,
2013-11-08 22:54:00,37.0,24.0,30.15,West,281,9.0,12.0,61,0.00,,,-99.99,,2013-11-09 03:54:00,
2013-11-08 23:00:00,35.0,24.0,30.16,WSW,257,4.0,11.0,65,0.00,,,-99.99,,2013-11-09 04:00:00,
2013-11-08 23:43:00,35.0,24.0,30.16,WSW,257,4.0,11.0,65,0.00,,,-99.99,,2013-11-09 04:43:00,
2013-11-08 23:54:00,35.0,24.0,30.16,WSW,257,4.0,11.0,65,0.00,,,-99.99,,2013-11-09 04:54:00,